Terminal Aerodrome Forecast
Issued by NWS Billings, MT

Home | Current Version | Previous Version | Graphics & Text | Print | Product List | Glossary On
Versions: 1 2 3 4 5 6 7 8 9 10 11 12 13 14 15 16 17 18 19 20 21 22 23 24 25 26 27
000
FTUS45 KBYZ 240538 CCA
TAFMLS
TAF COR
KMLS 240538Z 2406/2506 VRB06KT P6SM VCSH BKN018
     FM240800 30012KT 6SM -RA BKN015 OVC030
     FM241100 32015G25KT 6SM -RA SCT020 BKN030
     FM241500 34033G45KT 4SM -RA SCT020 BKN030
     FM242200 34033G45KT 4SM -RA VCTS SCT020 BKN030CB
     FM250300 32020G40KT 6SM -RA VCTS SCT020 BKN030CB=

USA.gov is the U.S. government's official web portal to all federal, state and local government web resources and services.